»·PEaware :: ASA698 KSEA-KGEG

ASA698 :: KSEA-KGEG

FLIGHT INFORMATION

Flight Status: Arrived
Operator:
Alaska Airlines
More flights by this operator :: More flights under this callsign
Pilot: Dave P. (45)
Aircraft: BOEING 737-700
(B737)
More flights by this aircraft type
Origin: KSEA Seattle-Tacoma Intl
United States
Destination: KGEG Spokane Intl
United States
More flights between these airports :: More routes between these airports
Route: +SEA6 ZADON ZELAK ZIRAN ZOOMR ZOOMR1
File this flight plan on PilotEdge
Remarks: PBN / A1B1C1D1S1S2 DOF / 180320 REG / N737PM OPR / ASA PER / C RMK / TCAS SIMBRIEF
Altitude:
(Current/Filed)
29,000ft
Speed:
(Current/Filed)
438kts
Departed: 20-Mar-18 03:16 PM
Arrived: 20-Mar-18 04:01 PM
Distance/Time
Traveled:
194nm/0:44
Distance/Time
To Go:
Arrived

Flight Plot

Page will automatically refresh every two minutes.

Flight plan parsing failed; only flown route is shown


Map Options




Map Legend


Flown Route
Filed Route
Departure Airport
Arrival Airport
Navaid (VOR, NDB)
Fix

Horizontal Profiles

Position Reports

Time Latitude Longitude Heading Altitude Ground
Speed
20-Mar-18 14:58 47.439314 -122.298669 80 441ft 0kts
20-Mar-18 14:59 47.439314 -122.298669 80 441ft 0kts
20-Mar-18 15:00 47.439314 -122.298669 80 441ft 0kts
20-Mar-18 15:01 47.439314 -122.298669 80 441ft 0kts
20-Mar-18 15:02 47.439314 -122.298669 80 441ft 0kts
20-Mar-18 15:03 47.439314 -122.298669 80 441ft 0kts
20-Mar-18 15:04 47.439302 -122.298775 81 440ft 2kts
20-Mar-18 15:05 47.439698 -122.299668 159 440ft 2kts
20-Mar-18 15:06 47.439774 -122.299704 164 440ft 0kts
20-Mar-18 15:07 47.439726 -122.299684 164 440ft 3kts
20-Mar-18 15:08 47.437282 -122.301241 255 440ft 9kts
20-Mar-18 15:09 47.436891 -122.304824 269 440ft 0kts
20-Mar-18 15:10 47.436904 -122.305517 271 440ft 0kts
20-Mar-18 15:11 47.436878 -122.306211 240 440ft 9kts
20-Mar-18 15:12 47.433330 -122.305695 180 440ft 11kts
20-Mar-18 15:13 47.431511 -122.306999 268 440ft 0kts
20-Mar-18 15:14 47.432233 -122.308015 0 441ft 14kts
20-Mar-18 15:15 47.460701 -122.308121 357 1015ft 155kts
20-Mar-18 15:16 47.506459 -122.305417 2 2825ft 195kts
20-Mar-18 15:17 47.571429 -122.300947 2 4560ft 261kts
20-Mar-18 15:18 47.645829 -122.293301 18 7856ft 276kts
20-Mar-18 15:19 47.662971 -122.191031 103 11027ft 305kts
20-Mar-18 15:20 47.635249 -122.055292 108 12979ft 369kts
20-Mar-18 15:21 47.601290 -121.907791 108 16275ft 388kts
20-Mar-18 15:22 47.567007 -121.751305 101 19359ft 407kts
20-Mar-18 15:23 47.560151 -121.581541 89 22122ft 422kts
20-Mar-18 15:24 47.557646 -121.405167 89 24537ft 436kts
20-Mar-18 15:25 47.554503 -121.222784 89 26606ft 448kts
20-Mar-18 15:26 47.551022 -121.036751 89 28650ft 453kts
20-Mar-18 15:27 47.548282 -120.850126 88 29018ft 451kts
20-Mar-18 15:28 47.544649 -120.663919 89 29016ft 452kts
20-Mar-18 15:29 47.540315 -120.478040 89 29013ft 453kts
20-Mar-18 15:30 47.533426 -120.292088 91 29010ft 454kts
20-Mar-18 15:31 47.524164 -120.105449 91 29011ft 454kts
20-Mar-18 15:32 47.514756 -119.919361 91 29015ft 454kts
20-Mar-18 15:33 47.506004 -119.732820 91 29021ft 453kts
20-Mar-18 15:34 47.496694 -119.547900 91 28490ft 442kts
20-Mar-18 15:35 47.487310 -119.369536 92 26100ft 429kts
20-Mar-18 15:36 47.477907 -119.196530 92 24188ft 412kts
20-Mar-18 15:37 47.468499 -119.028299 93 21899ft 408kts
20-Mar-18 15:38 47.459088 -118.864266 93 19645ft 394kts
20-Mar-18 15:39 47.450067 -118.705057 93 17432ft 382kts
20-Mar-18 15:40 47.440782 -118.551039 94 15267ft 371kts
20-Mar-18 15:41 47.431409 -118.402063 95 13454ft 350kts
20-Mar-18 15:42 47.433679 -118.268440 74 12987ft 308kts
20-Mar-18 15:43 47.453111 -118.145274 85 12639ft 308kts
20-Mar-18 15:44 47.458740 -118.040007 85 11242ft 305kts
20-Mar-18 15:45 47.467765 -117.897894 85 9566ft 289kts
20-Mar-18 15:46 47.474723 -117.800662 85 8996ft 282kts
20-Mar-18 15:47 47.484366 -117.666833 85 8998ft 280kts
20-Mar-18 15:48 47.497602 -117.573753 59 8922ft 281kts
20-Mar-18 15:49 47.541619 -117.480020 55 7518ft 275kts
20-Mar-18 15:50 47.585045 -117.388333 55 7001ft 271kts
20-Mar-18 15:51 47.627402 -117.298585 55 6692ft 256kts
20-Mar-18 15:52 47.667844 -117.212764 53 5342ft 251kts
20-Mar-18 15:53 47.722212 -117.217978 307 5032ft 214kts
20-Mar-18 15:54 47.755080 -117.288725 274 4963ft 194kts
20-Mar-18 15:55 47.731976 -117.355017 235 4000ft 183kts
20-Mar-18 15:56 47.701383 -117.412647 224 3999ft 168kts
20-Mar-18 15:57 47.669157 -117.461088 224 3434ft 162kts
20-Mar-18 15:58 47.640897 -117.503677 224 2647ft 128kts
20-Mar-18 15:59 47.619213 -117.536340 225 2380ft 57kts
20-Mar-18 16:00 47.618659 -117.541792 4 2380ft 10kts
20-Mar-18 16:01 47.622145 -117.536701 45 2380ft 18kts
20-Mar-18 16:02 47.624949 -117.532492 18 2380ft 7kts
20-Mar-18 16:03 47.626135 -117.533572 270 2380ft 0kts
20-Mar-18 16:04 47.626135 -117.533572 270 2380ft 0kts
20-Mar-18 16:05 47.626135 -117.533572 270 2380ft 0kts
20-Mar-18 16:06 47.626135 -117.533572 270 2380ft 0kts
20-Mar-18 16:07 47.626135 -117.533572 270 2380ft 0kts
20-Mar-18 16:08 47.626135 -117.533572 270 2380ft 0kts
20-Mar-18 16:09 47.626135 -117.533572 270 2380ft 0kts

Navigation Log

Ident Type
Flight plan parsing failed, navigation log unavailable